createdAt,value
2022-10-18T00:01:03.074Z,8.43
2022-10-18T00:06:10.206Z,8.30
2022-10-18T00:08:38.998Z,8.02
2022-10-18T00:11:06.586Z,8.68
2022-10-18T00:13:34.144Z,8.63
2022-10-18T00:16:04.341Z,8.52
2022-10-18T00:18:32.132Z,8.00
2022-10-18T00:21:02.261Z,8.38
2022-10-18T00:23:33.562Z,8.27
2022-10-18T00:26:05.580Z,8.55
2022-10-18T00:28:34.478Z,8.43
2022-10-18T00:31:17.783Z,8.05
2022-10-18T00:36:14.707Z,8.63
2022-10-18T00:38:44.992Z,7.72
2022-10-18T00:41:15.904Z,8.20
2022-10-18T00:43:58.432Z,9.13
2022-10-18T00:46:28.813Z,8.45
2022-10-18T00:48:59.656Z,8.32
2022-10-18T00:51:35.366Z,8.40
2022-10-18T00:54:03.910Z,8.40
2022-10-18T00:56:33.448Z,8.68
2022-10-18T00:59:01.142Z,8.80
2022-10-18T01:01:28.700Z,8.55
2022-10-18T01:03:56.768Z,8.50
2022-10-18T01:06:24.914Z,8.38
2022-10-18T01:09:06.639Z,8.30
2022-10-18T01:11:59.681Z,8.27
2022-10-18T01:14:51.844Z,7.97
2022-10-18T01:17:33.040Z,8.25
2022-10-18T01:20:27.108Z,8.60
2022-10-18T01:23:19.145Z,8.65
2022-10-18T01:26:04.658Z,8.43
2022-10-18T01:28:49.232Z,8.60
2022-10-18T01:31:32.299Z,7.78
2022-10-18T01:34:14.143Z,8.30
2022-10-18T01:36:48.666Z,8.10
2022-10-18T01:39:21.405Z,7.13
2022-10-18T01:41:51.621Z,7.65
2022-10-18T01:44:24.325Z,7.82
2022-10-18T01:46:54.724Z,7.38
2022-10-18T01:49:22.579Z,7.57
2022-10-18T01:51:49.867Z,7.38
2022-10-18T01:54:24.773Z,7.97
2022-10-18T01:57:03.697Z,7.82
2022-10-18T01:59:45.026Z,7.70
2022-10-18T02:02:12.615Z,7.82
2022-10-18T02:04:59.786Z,7.95
2022-10-18T02:08:00.275Z,7.50
2022-10-18T02:10:41.883Z,7.90
2022-10-18T02:13:15.487Z,7.80
2022-10-18T02:15:48.543Z,8.05
2022-10-18T02:18:26.060Z,9.18
2022-10-18T02:20:54.586Z,8.52
2022-10-18T02:23:24.517Z,7.95
2022-10-18T02:25:52.682Z,8.63
2022-10-18T02:28:21.074Z,7.70
2022-10-18T02:30:53.282Z,8.73
2022-10-18T02:33:44.115Z,8.15
2022-10-18T02:36:19.261Z,8.23
2022-10-18T02:38:50.307Z,7.75
2022-10-18T02:41:27.789Z,8.23
2022-10-18T02:43:55.304Z,8.35
2022-10-18T02:46:22.955Z,8.15
2022-10-18T02:48:50.331Z,7.95
2022-10-18T02:51:17.567Z,8.48
2022-10-18T02:53:45.138Z,7.68
2022-10-18T02:56:12.194Z,7.80
2022-10-18T02:58:39.696Z,8.70
2022-10-18T03:03:48.648Z,8.45
2022-10-18T03:06:16.103Z,7.72
2022-10-18T03:08:43.178Z,8.05
2022-10-18T03:11:10.643Z,8.95
2022-10-18T03:13:38.025Z,7.95
2022-10-18T03:16:05.468Z,8.00
2022-10-18T03:18:32.850Z,7.95
2022-10-18T03:21:04.871Z,9.20
2022-10-18T03:23:32.064Z,8.23
2022-10-18T03:25:59.523Z,7.80
2022-10-18T03:28:29.105Z,8.57
2022-10-18T03:31:04.499Z,8.15
2022-10-18T03:33:33.169Z,9.05
2022-10-18T03:36:00.686Z,8.75
2022-10-18T03:38:30.587Z,9.70
2022-10-18T03:40:57.955Z,8.95
2022-10-18T03:43:25.034Z,9.00
2022-10-18T03:45:52.797Z,8.90
2022-10-18T03:48:20.053Z,8.80
2022-10-18T03:50:47.450Z,8.60
2022-10-18T03:53:14.824Z,8.88
2022-10-18T03:55:42.299Z,9.23
2022-10-18T03:58:09.502Z,7.88
2022-10-18T04:00:36.998Z,9.13
2022-10-18T04:03:04.240Z,8.75
2022-10-18T04:05:31.692Z,8.98
2022-10-18T04:07:58.886Z,8.48
2022-10-18T04:10:31.762Z,8.75
2022-10-18T04:12:58.862Z,9.70
2022-10-18T04:15:26.546Z,8.52
2022-10-18T04:17:53.825Z,8.35
2022-10-18T04:20:21.133Z,8.70
2022-10-18T04:22:49.216Z,8.88
2022-10-18T04:25:17.322Z,8.63
2022-10-18T04:27:44.650Z,8.50
2022-10-18T04:30:14.653Z,9.13
2022-10-18T04:32:44.142Z,8.60
2022-10-18T04:35:13.865Z,9.18
2022-10-18T04:37:41.133Z,8.35
2022-10-18T04:40:09.335Z,9.02
2022-10-18T04:42:36.502Z,8.38
2022-10-18T04:45:03.987Z,7.95
2022-10-18T04:47:33.666Z,8.82
2022-10-18T04:50:01.182Z,8.00
2022-10-18T04:52:28.832Z,9.43
2022-10-18T04:54:56.242Z,8.68
2022-10-18T04:57:23.430Z,9.02
2022-10-18T04:59:52.883Z,7.88
2022-10-18T05:02:22.610Z,9.40
2022-10-18T05:04:51.159Z,7.93
2022-10-18T05:07:18.331Z,8.55
2022-10-18T05:09:45.624Z,9.18
2022-10-18T05:12:14.938Z,9.50
2022-10-18T05:14:42.334Z,9.82
2022-10-18T05:17:09.686Z,9.70
2022-10-18T05:19:37.019Z,8.18
2022-10-18T05:22:04.340Z,9.55
2022-10-18T05:24:31.778Z,8.98
2022-10-18T05:26:58.816Z,8.88
2022-10-18T05:31:58.230Z,10.70
2022-10-18T05:34:25.507Z,9.13
2022-10-18T05:36:52.937Z,9.95
2022-10-18T05:39:20.601Z,9.38
2022-10-18T05:41:47.684Z,12.70
2022-10-18T05:44:17.247Z,13.57
2022-10-18T05:46:44.431Z,11.48
2022-10-18T05:49:14.814Z,11.43
2022-10-18T05:51:41.986Z,10.85
2022-10-18T05:54:14.125Z,11.80
2022-10-18T05:56:41.390Z,11.48
2022-10-18T05:59:08.748Z,11.43
2022-10-18T06:01:39.606Z,9.65
2022-10-18T06:04:09.925Z,8.55
2022-10-18T06:06:37.953Z,9.50
2022-10-18T06:09:08.181Z,9.32
2022-10-18T06:11:37.776Z,8.23
2022-10-18T06:14:05.536Z,8.60
2022-10-18T06:19:02.549Z,9.32
2022-10-18T06:21:29.925Z,9.27
2022-10-18T06:23:59.162Z,10.43
2022-10-18T06:26:28.309Z,10.05
2022-10-18T06:28:56.001Z,10.38
2022-10-18T06:31:23.323Z,10.10
2022-10-18T06:33:53.207Z,10.07
2022-10-18T06:36:23.630Z,9.48
2022-10-18T06:38:54.420Z,8.18
2022-10-18T06:41:21.602Z,8.75
2022-10-18T06:43:53.793Z,8.18
2022-10-18T06:46:24.556Z,8.30
2022-10-18T06:48:54.816Z,7.28
2022-10-18T06:51:24.092Z,8.32
2022-10-18T06:54:06.136Z,7.60
2022-10-18T06:56:39.272Z,7.57
2022-10-18T06:59:08.840Z,7.80
2022-10-18T07:01:36.622Z,7.47
2022-10-18T07:04:04.304Z,7.20
2022-10-18T07:06:31.476Z,7.28
2022-10-18T07:09:01.033Z,7.22
2022-10-18T07:11:28.539Z,8.32
2022-10-18T07:14:01.012Z,7.57
2022-10-18T07:18:58.185Z,7.10
2022-10-18T07:21:26.876Z,6.65
2022-10-18T07:23:56.581Z,6.93
2022-10-18T07:26:32.065Z,6.82
2022-10-18T07:29:04.416Z,6.25
2022-10-18T07:31:31.792Z,6.57
2022-10-18T07:33:59.372Z,7.75
2022-10-18T07:36:28.606Z,6.88
2022-10-18T07:38:56.133Z,7.18
2022-10-18T07:41:26.046Z,6.88
2022-10-18T07:43:56.020Z,6.80
2022-10-18T07:46:23.372Z,6.97
2022-10-18T07:48:51.133Z,6.57
2022-10-18T07:51:19.820Z,7.40
2022-10-18T07:53:47.825Z,6.57
2022-10-18T07:56:17.272Z,6.80
2022-10-18T07:58:46.428Z,6.05
2022-10-18T08:01:14.770Z,6.63
2022-10-18T08:03:43.227Z,7.10
2022-10-18T08:06:12.798Z,6.72
2022-10-18T08:08:41.553Z,6.90
2022-10-18T08:11:08.861Z,6.85
2022-10-18T08:13:36.336Z,6.65
2022-10-18T08:16:12.205Z,6.22
2022-10-18T08:18:40.169Z,6.03
2022-10-18T08:21:09.779Z,6.85
2022-10-18T08:23:40.301Z,6.55
2022-10-18T08:26:10.838Z,6.05
2022-10-18T08:28:39.162Z,6.18
2022-10-18T08:31:08.528Z,6.82
2022-10-18T08:33:35.961Z,6.65
2022-10-18T08:36:05.571Z,7.13
2022-10-18T08:38:37.227Z,6.95
2022-10-18T08:44:20.844Z,6.80
2022-10-18T08:46:51.215Z,7.68
2022-10-18T08:49:51.303Z,6.30
2022-10-18T08:52:47.577Z,7.03
2022-10-18T08:55:43.015Z,6.78
2022-10-18T08:58:17.953Z,7.30
2022-10-18T09:01:12.353Z,7.80
2022-10-18T09:04:10.474Z,7.22
2022-10-18T09:06:47.069Z,6.57
2022-10-18T09:09:31.638Z,7.45
2022-10-18T09:12:37.055Z,7.90
2022-10-18T09:15:15.176Z,6.72
2022-10-18T09:18:15.099Z,8.15
2022-10-18T09:21:15.056Z,7.90
2022-10-18T09:24:08.692Z,6.72
2022-10-18T09:26:52.928Z,7.00
2022-10-18T09:29:37.736Z,7.05
2022-10-18T09:32:25.352Z,8.43
2022-10-18T09:35:04.999Z,7.55
2022-10-18T09:37:34.683Z,8.50
2022-10-18T09:40:23.327Z,8.40
2022-10-18T09:43:02.665Z,8.32
2022-10-18T09:45:36.875Z,8.35
2022-10-18T09:48:12.443Z,8.80
2022-10-18T09:51:02.157Z,8.32
2022-10-18T09:53:56.700Z,8.05
2022-10-18T09:56:35.636Z,7.53
2022-10-18T09:59:24.641Z,8.32
2022-10-18T10:01:52.206Z,7.72
2022-10-18T10:04:19.629Z,8.25
2022-10-18T10:06:52.209Z,8.43
2022-10-18T10:09:36.227Z,8.23
2022-10-18T10:12:04.122Z,8.85
2022-10-18T10:14:42.976Z,8.93
2022-10-18T10:17:25.569Z,8.70
2022-10-18T10:20:02.209Z,8.40
2022-10-18T10:22:37.357Z,8.48
2022-10-18T10:25:08.083Z,9.10
2022-10-18T10:27:53.992Z,9.05
2022-10-18T10:30:26.839Z,8.88
2022-10-18T10:32:56.179Z,9.07
2022-10-18T10:35:52.626Z,9.80
2022-10-18T10:38:29.633Z,9.93
2022-10-18T10:40:57.769Z,9.23
2022-10-18T10:43:39.354Z,9.63
2022-10-18T10:46:13.036Z,10.43
2022-10-18T10:48:50.622Z,10.13
2022-10-18T10:51:39.025Z,10.13
2022-10-18T10:54:14.892Z,9.40
2022-10-18T10:57:19.765Z,10.50
2022-10-18T10:59:57.294Z,10.23
2022-10-18T11:02:35.552Z,10.63
2022-10-18T11:05:26.186Z,10.60
2022-10-18T11:07:58.237Z,10.48
2022-10-18T11:10:31.124Z,10.38
2022-10-18T11:13:01.560Z,10.05
2022-10-18T11:15:55.696Z,14.57
2022-10-18T11:18:34.773Z,9.77
2022-10-18T11:21:17.453Z,11.50
2022-10-18T11:23:45.363Z,10.90
2022-10-18T11:26:12.933Z,10.52
2022-10-18T11:28:59.425Z,10.68
2022-10-18T11:32:03.982Z,11.45
2022-10-18T11:35:08.549Z,11.30
2022-10-18T11:37:46.448Z,10.95
2022-10-18T11:40:38.079Z,11.25
2022-10-18T11:44:01.129Z,11.25
2022-10-18T11:46:51.591Z,11.32
2022-10-18T11:49:49.316Z,11.57
2022-10-18T11:52:57.878Z,11.77
2022-10-18T11:55:44.212Z,11.52
2022-10-18T11:58:28.115Z,11.90
2022-10-18T12:00:59.283Z,11.68
2022-10-18T12:03:53.091Z,11.38
2022-10-18T12:06:28.388Z,11.27
2022-10-18T12:09:21.881Z,11.25
2022-10-18T12:14:46.406Z,12.68
2022-10-18T12:17:46.052Z,12.13
2022-10-18T12:20:17.355Z,11.65
2022-10-18T12:22:56.214Z,11.27
2022-10-18T12:25:23.883Z,12.68
2022-10-18T12:28:15.380Z,12.75
2022-10-18T12:30:54.798Z,11.13
2022-10-18T12:33:29.086Z,11.13
2022-10-18T12:36:21.555Z,11.80
2022-10-18T12:39:01.643Z,12.50
2022-10-18T12:41:33.718Z,11.07
2022-10-18T12:44:22.150Z,11.02
2022-10-18T12:46:55.664Z,11.40
2022-10-18T12:49:40.254Z,11.77
2022-10-18T12:52:23.285Z,11.48
2022-10-18T12:55:15.300Z,12.18
2022-10-18T12:57:54.054Z,11.25
2022-10-18T13:00:30.611Z,11.95
2022-10-18T13:03:09.720Z,11.48
2022-10-18T13:06:02.940Z,11.20
2022-10-18T13:08:32.774Z,12.23
2022-10-18T13:11:09.077Z,11.98
2022-10-18T13:14:09.536Z,11.45
2022-10-18T13:16:55.478Z,11.75
2022-10-18T13:19:22.579Z,11.05
2022-10-18T13:21:56.169Z,11.65
2022-10-18T13:25:03.416Z,10.95
2022-10-18T13:28:00.591Z,10.93
2022-10-18T13:30:48.717Z,10.88
2022-10-18T13:33:25.631Z,10.20
2022-10-18T13:36:25.886Z,9.93
2022-10-18T13:38:56.145Z,10.63
2022-10-18T13:41:26.870Z,11.05
2022-10-18T13:44:31.306Z,10.95
2022-10-18T13:46:58.387Z,10.95
2022-10-18T13:49:39.743Z,11.38
2022-10-18T13:52:32.049Z,10.70
2022-10-18T13:55:37.351Z,12.37
2022-10-18T13:58:29.265Z,10.95
2022-10-18T14:01:42.455Z,14.27
2022-10-18T14:05:23.728Z,16.17
2022-10-18T14:07:59.871Z,16.75
2022-10-18T14:10:57.384Z,18.23
2022-10-18T14:13:36.679Z,17.00
2022-10-18T14:16:26.328Z,18.02
2022-10-18T14:19:01.528Z,18.77
2022-10-18T14:21:36.197Z,17.08
2022-10-18T14:24:21.270Z,18.83
2022-10-18T14:26:48.627Z,20.42
2022-10-18T14:29:20.418Z,20.02
2022-10-18T14:31:54.627Z,20.75
2022-10-18T14:34:22.361Z,19.23
2022-10-18T14:36:50.455Z,20.38
2022-10-18T14:39:27.202Z,20.35
2022-10-18T14:41:56.026Z,19.65
2022-10-18T14:44:33.036Z,18.55
2022-10-18T14:47:22.500Z,20.05
2022-10-18T14:49:50.820Z,16.85
2022-10-18T14:52:26.235Z,14.07
2022-10-18T14:54:58.153Z,18.73
2022-10-18T14:57:33.724Z,12.30
2022-10-18T15:00:08.706Z,11.48
2022-10-18T15:02:38.462Z,11.52
2022-10-18T15:05:08.788Z,10.40
2022-10-18T15:07:37.055Z,10.65
2022-10-18T15:10:06.157Z,11.13
2022-10-18T15:12:41.188Z,8.82
2022-10-18T15:15:26.888Z,9.23
2022-10-18T15:20:37.947Z,8.82
2022-10-18T15:23:26.234Z,8.35
2022-10-18T15:26:11.556Z,8.48
2022-10-18T15:28:47.610Z,7.28
2022-10-18T15:31:24.745Z,6.20
2022-10-18T15:33:52.824Z,4.57
2022-10-18T15:36:38.568Z,3.58
2022-10-18T15:39:16.767Z,3.67
2022-10-18T15:41:51.557Z,3.70
2022-10-18T15:44:49.908Z,3.13
2022-10-18T15:47:20.211Z,4.60
2022-10-18T15:49:53.587Z,3.75
2022-10-18T15:52:38.275Z,3.20
2022-10-18T15:55:29.198Z,3.10
2022-10-18T15:58:23.629Z,3.20
2022-10-18T16:03:20.582Z,2.80
2022-10-18T16:05:47.974Z,2.92
2022-10-18T16:08:24.356Z,2.58
2022-10-18T16:10:52.880Z,3.35
2022-10-18T16:13:20.454Z,3.97
2022-10-18T16:15:47.899Z,4.20
2022-10-18T16:18:18.676Z,2.70
2022-10-18T16:20:46.766Z,2.70
2022-10-18T16:23:26.528Z,4.60
2022-10-18T16:25:54.307Z,2.72
2022-10-18T16:28:24.764Z,2.65
2022-10-18T16:31:01.015Z,3.25
2022-10-18T16:33:28.482Z,2.83
2022-10-18T16:35:55.831Z,2.97
2022-10-18T16:38:35.168Z,3.28
2022-10-18T16:41:07.276Z,11.57
2022-10-18T16:43:35.281Z,10.23
2022-10-18T16:46:04.265Z,4.85
2022-10-18T16:48:31.883Z,3.47
2022-10-18T16:50:59.579Z,5.30
2022-10-18T16:53:27.100Z,7.00
2022-10-18T16:55:56.927Z,6.28
2022-10-18T16:58:25.684Z,4.60
2022-10-18T17:00:53.222Z,5.32
2022-10-18T17:03:23.434Z,6.85
2022-10-18T17:05:53.791Z,6.20
2022-10-18T17:08:24.028Z,7.32
2022-10-18T17:10:53.418Z,5.30
2022-10-18T17:13:21.643Z,4.05
2022-10-18T17:15:49.880Z,2.85
2022-10-18T17:18:23.770Z,8.05
2022-10-18T17:20:50.951Z,7.30
2022-10-18T17:23:18.878Z,18.92
2022-10-18T17:25:57.703Z,19.02
2022-10-18T17:28:35.973Z,5.80
2022-10-18T17:31:06.891Z,3.28
2022-10-18T17:33:34.748Z,3.35
2022-10-18T17:36:01.814Z,3.75
2022-10-18T17:38:29.174Z,6.35
2022-10-18T17:40:56.604Z,4.38
2022-10-18T17:43:23.960Z,3.58
2022-10-18T17:45:55.453Z,3.30
2022-10-18T17:48:23.831Z,3.58
2022-10-18T17:50:51.089Z,3.88
2022-10-18T17:53:18.454Z,16.30
2022-10-18T17:55:45.914Z,5.93
2022-10-18T17:58:13.267Z,4.20
2022-10-18T18:00:40.603Z,3.58
2022-10-18T18:03:08.434Z,4.20
2022-10-18T18:05:35.751Z,3.65
2022-10-18T18:08:04.215Z,3.95
2022-10-18T18:10:35.359Z,4.07
2022-10-18T18:13:02.921Z,16.67
2022-10-18T18:15:30.018Z,14.00
2022-10-18T18:17:59.935Z,5.18
2022-10-18T18:20:26.979Z,3.10
2022-10-18T18:22:54.683Z,3.20
2022-10-18T18:25:23.193Z,2.70
2022-10-18T18:27:50.583Z,3.28
2022-10-18T18:30:17.941Z,2.85
2022-10-18T18:32:45.696Z,2.70
2022-10-18T18:35:12.848Z,12.18
2022-10-18T18:37:40.121Z,3.70
2022-10-18T18:40:08.311Z,3.03
2022-10-18T18:42:35.900Z,2.95
2022-10-18T18:45:03.847Z,3.38
2022-10-18T18:47:31.359Z,3.75
2022-10-18T18:50:01.545Z,3.60
2022-10-18T18:52:29.112Z,3.70
2022-10-18T18:54:56.683Z,3.97
2022-10-18T18:57:24.059Z,3.97
2022-10-18T18:59:51.149Z,3.38
2022-10-18T19:02:20.279Z,3.75
2022-10-18T19:04:47.399Z,3.72
2022-10-18T19:07:14.807Z,3.70
2022-10-18T19:09:41.959Z,3.88
2022-10-18T19:12:09.253Z,4.38
2022-10-18T19:14:36.379Z,4.00
2022-10-18T19:17:03.990Z,3.92
2022-10-18T19:19:31.904Z,4.07
2022-10-18T19:22:02.311Z,4.05
2022-10-18T19:24:33.047Z,3.70
2022-10-18T19:27:03.329Z,3.70
2022-10-18T19:29:36.579Z,3.90
2022-10-18T19:34:33.904Z,4.57
2022-10-18T19:37:01.633Z,4.10
2022-10-18T19:39:34.318Z,3.70
2022-10-18T19:42:07.390Z,3.67
2022-10-18T19:44:36.094Z,3.03
2022-10-18T19:47:05.490Z,2.63
2022-10-18T19:49:33.017Z,3.30
2022-10-18T19:52:00.347Z,20.20
2022-10-18T19:54:27.976Z,14.27
2022-10-18T19:56:55.360Z,4.45
2022-10-18T19:59:22.895Z,2.60
2022-10-18T20:01:50.760Z,2.25
2022-10-18T20:04:17.970Z,2.88
2022-10-18T20:06:45.397Z,2.55
2022-10-18T20:09:19.414Z,2.30
2022-10-18T20:11:48.154Z,1.65
2022-10-18T20:14:15.409Z,2.22
2022-10-18T20:16:45.586Z,2.25
2022-10-18T20:19:12.671Z,1.95
2022-10-18T20:21:40.306Z,2.08
2022-10-18T20:24:08.116Z,2.47
2022-10-18T20:26:35.630Z,2.85
2022-10-18T20:29:04.014Z,3.15
2022-10-18T20:31:33.636Z,3.13
2022-10-18T20:34:05.984Z,2.75
2022-10-18T20:36:34.479Z,2.85
2022-10-18T20:39:02.157Z,4.18
2022-10-18T20:41:33.229Z,4.22
2022-10-18T20:44:05.848Z,4.80
2022-10-18T20:46:36.012Z,4.18
2022-10-18T20:49:04.271Z,3.58
2022-10-18T20:51:33.806Z,3.13
2022-10-18T20:54:02.889Z,3.80
2022-10-18T20:56:30.590Z,3.80
2022-10-18T20:58:57.770Z,3.90
2022-10-18T21:01:30.368Z,4.32
2022-10-18T21:04:00.143Z,5.13
2022-10-18T21:06:31.971Z,5.50
2022-10-18T21:09:10.336Z,6.13
2022-10-18T21:11:43.039Z,6.90
2022-10-18T21:14:16.207Z,20.17
2022-10-18T21:16:44.367Z,9.23
2022-10-18T21:19:23.395Z,7.28
2022-10-18T21:21:53.456Z,6.43
2022-10-18T21:24:24.042Z,6.88
2022-10-18T21:26:53.907Z,5.63
2022-10-18T21:29:22.761Z,7.50
2022-10-18T21:31:55.894Z,6.80
2022-10-18T21:34:23.108Z,6.07
2022-10-18T21:36:50.465Z,6.63
2022-10-18T21:39:21.307Z,6.88
2022-10-18T21:41:49.524Z,6.80
2022-10-18T21:44:17.763Z,7.05
2022-10-18T21:46:47.884Z,7.78
2022-10-18T21:49:16.024Z,7.22
2022-10-18T21:51:44.264Z,7.43
2022-10-18T21:54:13.645Z,7.05
2022-10-18T21:56:41.252Z,7.40
2022-10-18T21:59:11.068Z,8.57
2022-10-18T22:01:39.842Z,7.40
2022-10-18T22:04:16.230Z,8.90
2022-10-18T22:06:43.621Z,21.05
2022-10-18T22:09:10.650Z,31.05
2022-10-18T22:11:42.495Z,15.65
2022-10-18T22:14:10.276Z,8.40
2022-10-18T22:16:37.701Z,7.28
2022-10-18T22:19:07.862Z,6.75
2022-10-18T22:21:35.410Z,6.32
2022-10-18T22:24:06.978Z,6.50
2022-10-18T22:26:37.300Z,6.05
2022-10-18T22:29:12.017Z,6.05
2022-10-18T22:31:41.876Z,6.43
2022-10-18T22:34:12.778Z,6.85
2022-10-18T22:36:40.699Z,5.97
2022-10-18T22:39:08.100Z,5.88
2022-10-18T22:41:36.242Z,6.30
2022-10-18T22:44:04.156Z,6.20
2022-10-18T22:46:32.161Z,6.55
2022-10-18T22:48:59.432Z,7.30
2022-10-18T22:51:27.224Z,6.47
2022-10-18T22:53:57.008Z,6.60
2022-10-18T22:56:24.963Z,6.75
2022-10-18T22:58:52.280Z,7.13
2022-10-18T23:01:22.382Z,6.45
2022-10-18T23:03:57.469Z,7.88
2022-10-18T23:06:26.350Z,7.18
2022-10-18T23:08:55.170Z,7.45
2022-10-18T23:11:23.630Z,7.65
2022-10-18T23:13:51.476Z,8.02
2022-10-18T23:16:19.695Z,8.82
2022-10-18T23:18:55.255Z,7.97
2022-10-18T23:21:24.761Z,9.60
2022-10-18T23:23:53.696Z,9.43
2022-10-18T23:26:24.395Z,10.40
2022-10-18T23:28:53.398Z,11.73
2022-10-18T23:31:29.431Z,12.55
2022-10-18T23:33:59.079Z,12.73
2022-10-18T23:36:27.161Z,11.35
2022-10-18T23:38:54.676Z,11.68
2022-10-18T23:41:22.774Z,11.38
2022-10-18T23:43:50.108Z,11.93
2022-10-18T23:46:18.935Z,11.88
2022-10-18T23:48:49.027Z,10.50
2022-10-18T23:51:17.268Z,11.77
2022-10-18T23:53:44.880Z,11.40
2022-10-18T23:56:16.257Z,10.93
2022-10-18T23:58:44.985Z,10.93
